createdAt,value
2019-03-31T16:09:23.386Z,47.92
2019-03-31T16:11:53.736Z,48.00
2019-03-31T16:14:13.515Z,48.24
2019-03-31T16:16:43.149Z,47.89
2019-03-31T16:19:12.034Z,48.40
2019-03-31T16:21:45.077Z,47.55
2019-03-31T16:24:13.872Z,47.76
2019-03-31T16:26:42.735Z,47.63
2019-03-31T16:29:14.429Z,47.81
2019-03-31T16:31:48.088Z,47.78
2019-03-31T16:34:25.450Z,48.08
2019-03-31T16:36:55.189Z,47.80
2019-03-31T16:39:36.826Z,48.13
2019-03-31T16:41:54.396Z,48.29
2019-03-31T16:44:23.191Z,47.98
2019-03-31T16:46:52.003Z,47.91
2019-03-31T16:49:21.478Z,47.81
2019-03-31T16:51:50.347Z,47.41
2019-03-31T16:54:20.077Z,47.63
2019-03-31T16:56:49.221Z,48.15
2019-03-31T16:59:18.680Z,47.50
2019-03-31T17:01:47.546Z,47.34
2019-03-31T17:04:17.226Z,47.17
2019-03-31T17:06:46.622Z,47.20
2019-03-31T17:09:15.434Z,47.23
2019-03-31T17:11:44.333Z,47.99
2019-03-31T17:14:13.151Z,48.19
2019-03-31T17:16:41.991Z,48.48
2019-03-31T17:19:10.855Z,47.89
2019-03-31T17:21:42.086Z,47.79
2019-03-31T17:24:10.923Z,47.18
2019-03-31T17:26:40.310Z,48.22
2019-03-31T17:29:10.371Z,48.31
2019-03-31T17:31:40.326Z,47.68
2019-03-31T17:34:09.130Z,47.92
2019-03-31T17:36:37.944Z,48.06
2019-03-31T17:39:09.024Z,48.02
2019-03-31T17:41:37.940Z,47.97
2019-03-31T17:44:08.648Z,48.60
2019-03-31T17:46:39.404Z,47.54
2019-03-31T17:49:10.047Z,48.26
2019-03-31T17:51:39.625Z,48.38
2019-03-31T17:54:08.427Z,48.93
2019-03-31T17:56:37.925Z,49.32
2019-03-31T17:59:09.021Z,49.61
2019-03-31T18:01:36.602Z,49.41
2019-03-31T18:04:05.441Z,49.61
2019-03-31T18:06:35.780Z,49.98
2019-03-31T18:09:06.910Z,50.43
2019-03-31T18:11:36.183Z,50.63
2019-03-31T18:14:06.841Z,50.61
2019-03-31T18:16:34.228Z,51.62
2019-03-31T18:19:03.311Z,51.50
2019-03-31T18:21:33.407Z,51.57
2019-03-31T18:24:02.210Z,52.00
2019-03-31T18:26:31.024Z,52.29
2019-03-31T18:29:00.756Z,52.50
2019-03-31T18:31:29.830Z,52.67
2019-03-31T18:33:58.643Z,53.05
2019-03-31T18:36:36.503Z,53.82
2019-03-31T18:38:56.986Z,53.87
2019-03-31T18:41:26.416Z,54.26
2019-03-31T18:43:55.611Z,54.07
2019-03-31T18:46:24.447Z,53.64
2019-03-31T18:48:53.292Z,53.92
2019-03-31T18:51:22.615Z,53.65
2019-03-31T18:53:58.592Z,54.05
2019-03-31T18:58:36.119Z,53.91
2019-03-31T19:01:12.360Z,54.02
2019-03-31T19:05:55.830Z,53.87
2019-03-31T19:08:32.223Z,54.69
2019-03-31T19:12:03.820Z,54.42
2019-03-31T19:14:40.354Z,54.25
2019-03-31T19:17:16.792Z,54.93
2019-03-31T19:19:57.934Z,54.95
2019-03-31T19:24:45.924Z,54.88
2019-03-31T19:27:21.351Z,55.59
2019-03-31T19:30:15.657Z,55.25
2019-03-31T19:32:47.459Z,55.51
2019-03-31T19:37:28.381Z,55.63
2019-03-31T19:40:34.223Z,56.11
2019-03-31T19:43:28.356Z,56.16
2019-03-31T19:46:05.198Z,56.25
2019-03-31T19:48:36.110Z,56.60
2019-03-31T19:51:13.070Z,56.37
2019-03-31T19:57:29.419Z,57.21
2019-03-31T20:02:08.107Z,57.64
2019-03-31T20:04:42.059Z,57.89
2019-03-31T20:07:17.759Z,57.74
2019-03-31T20:09:55.956Z,57.58
2019-03-31T20:12:33.173Z,57.32
2019-03-31T20:15:25.530Z,57.58
2019-03-31T20:18:01.372Z,57.13
2019-03-31T20:20:36.311Z,56.89
2019-03-31T20:23:09.942Z,57.25
2019-03-31T20:25:50.671Z,56.88
2019-03-31T20:28:59.965Z,57.22
2019-03-31T20:31:34.239Z,56.77
2019-03-31T20:34:08.403Z,56.79
2019-03-31T20:36:48.885Z,57.13
2019-03-31T20:39:26.955Z,57.87
2019-03-31T20:42:04.717Z,57.46
2019-03-31T20:44:33.861Z,57.27
2019-03-31T20:47:03.241Z,57.97
2019-03-31T20:49:33.032Z,57.96
2019-03-31T20:52:01.915Z,57.64
2019-03-31T20:54:32.990Z,58.14
2019-03-31T20:57:00.834Z,57.49
2019-03-31T20:59:31.069Z,58.23
2019-03-31T21:02:02.387Z,57.86
2019-03-31T21:04:31.259Z,58.26
2019-03-31T21:07:00.174Z,58.12
2019-03-31T21:09:29.096Z,58.15
2019-03-31T21:11:58.952Z,58.74
2019-03-31T21:14:27.988Z,59.25
2019-03-31T21:16:56.883Z,59.03
2019-03-31T21:19:26.657Z,59.29
2019-03-31T21:21:56.087Z,58.92
2019-03-31T21:24:25.191Z,59.29
2019-03-31T21:26:54.033Z,59.44
2019-03-31T21:29:25.824Z,59.56
2019-03-31T21:31:54.734Z,60.28
2019-03-31T21:34:23.575Z,60.23
2019-03-31T21:36:52.393Z,59.62
2019-03-31T21:39:21.238Z,60.33
2019-03-31T21:41:50.147Z,60.42
2019-03-31T21:44:20.699Z,61.00
2019-03-31T21:46:49.578Z,61.40
2019-03-31T21:49:18.629Z,60.88
2019-03-31T21:51:47.625Z,60.81
2019-03-31T21:54:16.679Z,61.53
2019-03-31T21:56:45.651Z,62.00
2019-03-31T21:59:14.539Z,62.06
2019-03-31T22:01:43.330Z,61.50
2019-03-31T22:04:13.307Z,62.33
2019-03-31T22:06:42.118Z,62.02
2019-03-31T22:09:11.618Z,62.69
2019-03-31T22:11:40.515Z,62.42
2019-03-31T22:14:10.691Z,62.88
2019-03-31T22:16:38.110Z,62.81
2019-03-31T22:19:07.090Z,62.37
2019-03-31T22:21:36.460Z,62.76
2019-03-31T22:24:05.359Z,62.50
2019-03-31T22:26:34.274Z,62.94
2019-03-31T22:29:03.202Z,62.10
2019-03-31T22:31:32.577Z,62.26
2019-03-31T22:34:01.993Z,62.48
2019-03-31T22:36:30.789Z,61.73
2019-03-31T22:38:59.586Z,60.95
2019-03-31T22:41:29.003Z,61.46
2019-03-31T22:43:58.403Z,61.42
2019-03-31T22:46:27.847Z,61.83
2019-03-31T22:48:57.217Z,61.53
2019-03-31T22:51:26.128Z,62.04
2019-03-31T22:53:54.926Z,61.92
2019-03-31T22:56:24.116Z,61.89
2019-03-31T22:58:52.948Z,62.06
2019-03-31T23:01:21.848Z,61.96
2019-03-31T23:03:50.715Z,62.35
2019-03-31T23:06:20.220Z,62.30
2019-03-31T23:08:50.254Z,62.83
2019-03-31T23:11:19.061Z,63.08
2019-03-31T23:13:51.463Z,62.38
2019-03-31T23:16:21.231Z,62.92
2019-03-31T23:18:51.358Z,62.46
2019-03-31T23:21:20.402Z,63.00
2019-03-31T23:23:49.570Z,62.41
2019-03-31T23:26:18.506Z,62.98
2019-03-31T23:28:47.318Z,62.84
2019-03-31T23:31:17.672Z,62.86
2019-03-31T23:33:47.243Z,63.47
2019-03-31T23:36:16.070Z,63.21
2019-03-31T23:38:44.946Z,63.10
2019-03-31T23:41:15.367Z,62.58
2019-03-31T23:43:44.272Z,62.69
2019-03-31T23:46:13.107Z,63.04
2019-03-31T23:48:42.008Z,63.33
2019-03-31T23:51:10.838Z,63.51
2019-03-31T23:53:39.971Z,63.25
2019-03-31T23:56:08.887Z,63.72
2019-03-31T23:58:37.702Z,63.74
